createdAt,value
2022-10-20T00:00:02.319Z,22.42
2022-10-20T00:05:08.540Z,19.95
2022-10-20T00:10:11.650Z,21.40
2022-10-20T00:15:15.886Z,20.08
2022-10-20T00:20:18.589Z,18.67
2022-10-20T00:25:21.312Z,18.77
2022-10-20T00:30:25.785Z,21.33
2022-10-20T00:35:28.516Z,16.75
2022-10-20T00:40:31.284Z,14.25
2022-10-20T00:45:35.393Z,14.27
2022-10-20T00:50:41.532Z,13.00
2022-10-20T00:55:47.509Z,14.05
2022-10-20T01:00:54.868Z,14.93
2022-10-20T01:05:57.552Z,12.07
2022-10-20T01:11:08.052Z,12.98
2022-10-20T01:16:17.212Z,11.20
2022-10-20T01:21:32.792Z,13.52
2022-10-20T01:26:50.367Z,12.52
2022-10-20T01:32:01.799Z,12.00
2022-10-20T01:37:09.918Z,11.55
2022-10-20T01:42:16.027Z,11.68
2022-10-20T01:47:21.082Z,10.88
2022-10-20T01:52:24.961Z,12.07
2022-10-20T01:57:38.394Z,10.10
2022-10-20T02:03:00.456Z,9.23
2022-10-20T02:08:10.338Z,10.93
2022-10-20T02:13:13.818Z,11.02
2022-10-20T02:18:20.948Z,10.15
2022-10-20T02:23:24.320Z,11.68
2022-10-20T02:28:28.210Z,10.00
2022-10-20T02:33:32.617Z,8.10
2022-10-20T02:38:35.386Z,10.60
2022-10-20T02:43:38.249Z,9.10
2022-10-20T02:48:42.272Z,8.48
2022-10-20T02:53:45.012Z,9.10
2022-10-20T02:58:47.746Z,8.38
2022-10-20T03:03:51.864Z,8.35
2022-10-20T03:08:54.664Z,8.30
2022-10-20T03:13:57.388Z,6.50
2022-10-20T03:19:04.690Z,8.13
2022-10-20T03:24:09.896Z,7.22
2022-10-20T03:29:12.717Z,7.53
2022-10-20T03:34:16.851Z,6.93
2022-10-20T03:39:19.752Z,9.95
2022-10-20T03:44:22.557Z,6.97
2022-10-20T03:49:26.890Z,7.32
2022-10-20T03:54:29.713Z,5.85
2022-10-20T03:59:32.500Z,6.30
2022-10-20T04:04:36.632Z,7.43
2022-10-20T04:09:39.364Z,7.88
2022-10-20T04:14:42.136Z,8.32
2022-10-20T04:19:46.240Z,7.65
2022-10-20T04:24:48.913Z,10.13
2022-10-20T04:29:51.634Z,9.00
2022-10-20T04:34:55.676Z,8.23
2022-10-20T04:39:58.627Z,7.72
2022-10-20T04:45:01.379Z,8.23
2022-10-20T04:50:06.356Z,6.78
2022-10-20T04:55:10.164Z,8.35
2022-10-20T05:00:14.149Z,7.40
2022-10-20T05:05:18.380Z,7.63
2022-10-20T05:10:21.104Z,7.53
2022-10-20T05:15:23.856Z,7.75
2022-10-20T05:20:30.921Z,8.85
2022-10-20T05:25:37.191Z,7.15
2022-10-20T05:30:40.360Z,5.30
2022-10-20T05:35:44.448Z,6.45
2022-10-20T05:40:47.143Z,6.60
2022-10-20T05:45:54.840Z,7.00
2022-10-20T05:51:10.676Z,9.25
2022-10-20T05:56:18.959Z,6.82
2022-10-20T06:01:24.836Z,6.85
2022-10-20T06:06:30.870Z,8.10
2022-10-20T06:11:37.120Z,5.78
2022-10-20T06:16:41.856Z,7.45
2022-10-20T06:21:45.970Z,9.23
2022-10-20T06:26:48.610Z,9.27
2022-10-20T06:31:52.406Z,7.63
2022-10-20T06:36:56.434Z,6.32
2022-10-20T06:41:59.225Z,6.65
2022-10-20T06:47:10.265Z,5.55
2022-10-20T06:52:14.392Z,5.22
2022-10-20T06:57:17.091Z,7.00
2022-10-20T07:02:21.782Z,5.75
2022-10-20T07:07:25.991Z,6.07
2022-10-20T07:12:28.694Z,5.72
2022-10-20T07:17:31.392Z,5.57
2022-10-20T07:22:37.272Z,5.43
2022-10-20T07:27:40.330Z,6.55
2022-10-20T07:32:43.247Z,6.72
2022-10-20T07:37:47.326Z,5.93
2022-10-20T07:42:50.040Z,6.13
2022-10-20T07:47:52.705Z,5.93
2022-10-20T07:52:57.052Z,10.07
2022-10-20T07:57:59.715Z,6.20
2022-10-20T08:03:02.386Z,6.05
2022-10-20T08:08:06.875Z,22.00
2022-10-20T08:13:09.555Z,12.90
2022-10-20T08:18:12.320Z,17.55
2022-10-20T08:23:17.051Z,22.40
2022-10-20T08:28:22.239Z,12.05
2022-10-20T08:33:27.522Z,14.05
2022-10-20T08:38:31.701Z,9.13
2022-10-20T08:43:37.694Z,11.65
2022-10-20T08:48:40.515Z,10.00
2022-10-20T08:53:44.619Z,8.35
2022-10-20T08:58:47.738Z,8.38
2022-10-20T09:03:53.795Z,8.05
2022-10-20T09:08:58.661Z,8.52
2022-10-20T09:14:01.427Z,7.65
2022-10-20T09:19:04.085Z,17.92
2022-10-20T09:24:09.137Z,10.48
2022-10-20T09:29:14.615Z,8.00
2022-10-20T09:34:22.566Z,9.77
2022-10-20T09:39:29.153Z,14.15
2022-10-20T09:44:33.600Z,26.60
2022-10-20T09:49:38.072Z,23.13
2022-10-20T09:54:42.246Z,17.13
2022-10-20T09:59:46.910Z,23.75
2022-10-20T10:04:51.056Z,19.60
2022-10-20T10:09:57.475Z,20.17
2022-10-20T10:15:01.880Z,17.17
2022-10-20T10:20:06.967Z,16.60
2022-10-20T10:25:17.602Z,16.92
2022-10-20T10:30:28.489Z,18.65
2022-10-20T10:35:34.815Z,17.60
2022-10-20T10:40:44.512Z,17.02
2022-10-20T10:45:53.413Z,17.00
2022-10-20T10:50:59.835Z,17.08
2022-10-20T10:56:14.096Z,15.45
2022-10-20T11:01:38.662Z,14.00
2022-10-20T11:06:44.643Z,11.98
2022-10-20T11:11:59.207Z,13.60
2022-10-20T11:17:13.127Z,13.27
2022-10-20T11:22:23.892Z,12.02
2022-10-20T11:27:31.164Z,14.13
2022-10-20T11:32:37.779Z,14.00
2022-10-20T11:37:43.616Z,12.40
2022-10-20T11:42:53.611Z,11.52
2022-10-20T11:48:01.542Z,12.27
2022-10-20T11:53:25.804Z,11.75
2022-10-20T11:59:17.128Z,12.57
2022-10-20T12:04:52.653Z,10.23
2022-10-20T12:10:03.639Z,11.95
2022-10-20T12:15:21.332Z,11.32
2022-10-20T12:20:50.253Z,9.75
2022-10-20T12:25:53.151Z,11.90
2022-10-20T12:30:59.205Z,10.38
2022-10-20T12:36:14.837Z,9.68
2022-10-20T12:41:26.401Z,10.88
2022-10-20T12:46:32.384Z,11.10
2022-10-20T12:51:37.100Z,9.43
2022-10-20T12:56:41.779Z,9.93
2022-10-20T13:02:36.266Z,10.05
2022-10-20T13:08:12.668Z,9.90
2022-10-20T13:13:48.716Z,15.77
2022-10-20T13:18:53.655Z,43.80
2022-10-20T13:24:02.803Z,56.08
2022-10-20T13:29:12.955Z,59.05
2022-10-20T13:34:19.339Z,56.30
2022-10-20T13:39:32.280Z,69.63
2022-10-20T13:44:41.076Z,66.03
2022-10-20T13:49:53.223Z,63.40
2022-10-20T13:54:58.103Z,51.15
2022-10-20T14:00:02.645Z,52.83
2022-10-20T14:05:12.151Z,48.05
2022-10-20T14:10:28.591Z,40.20
2022-10-20T14:15:33.669Z,34.03
2022-10-20T14:20:38.619Z,37.42
2022-10-20T14:25:42.920Z,40.80
2022-10-20T14:30:47.125Z,35.42
2022-10-20T14:35:52.714Z,35.35
2022-10-20T14:41:07.861Z,29.15
2022-10-20T14:46:12.494Z,29.63
2022-10-20T14:51:35.726Z,30.55
2022-10-20T14:56:44.315Z,25.38
2022-10-20T15:01:58.057Z,20.00
2022-10-20T15:07:06.066Z,25.80
2022-10-20T15:12:16.461Z,24.90
2022-10-20T15:17:37.002Z,22.67
2022-10-20T15:22:40.120Z,18.48
2022-10-20T15:27:44.233Z,16.67
2022-10-20T15:32:47.058Z,19.52
2022-10-20T15:37:51.164Z,18.38
2022-10-20T15:42:55.283Z,15.13
2022-10-20T15:47:57.946Z,16.92
2022-10-20T15:53:00.741Z,14.25
2022-10-20T15:58:04.866Z,13.48
2022-10-20T16:03:07.816Z,16.83
2022-10-20T16:08:10.804Z,13.57
2022-10-20T16:13:15.810Z,13.77
2022-10-20T16:18:18.544Z,14.23
2022-10-20T16:23:21.227Z,13.45
2022-10-20T16:28:25.375Z,11.00
2022-10-20T16:33:29.099Z,12.82
2022-10-20T16:38:37.274Z,13.23
2022-10-20T16:43:45.335Z,13.95
2022-10-20T16:48:48.464Z,14.10
2022-10-20T16:53:51.258Z,10.70
2022-10-20T16:58:55.315Z,14.65
2022-10-20T17:03:58.035Z,15.20
2022-10-20T17:09:00.804Z,10.30
2022-10-20T17:14:04.967Z,13.60
2022-10-20T17:19:07.826Z,12.50
2022-10-20T17:24:12.251Z,10.38
2022-10-20T17:29:16.287Z,10.82
2022-10-20T17:34:19.004Z,12.65
2022-10-20T17:39:22.253Z,11.13
2022-10-20T17:44:26.368Z,12.85
2022-10-20T17:49:29.180Z,9.45
2022-10-20T17:54:31.886Z,8.88
2022-10-20T17:59:42.537Z,13.10
2022-10-20T18:04:55.367Z,11.23
2022-10-20T18:09:58.025Z,12.32
2022-10-20T18:15:02.083Z,13.95
2022-10-20T18:20:05.572Z,13.00
2022-10-20T18:25:09.409Z,9.60
2022-10-20T18:30:13.660Z,13.73
2022-10-20T18:35:16.556Z,8.80
2022-10-20T18:40:20.542Z,10.60
2022-10-20T18:45:26.027Z,13.20
2022-10-20T18:50:29.023Z,11.68
2022-10-20T18:55:31.711Z,9.85
2022-10-20T19:00:35.819Z,10.98
2022-10-20T19:05:39.145Z,10.50
2022-10-20T19:10:44.058Z,10.50
2022-10-20T19:15:48.134Z,9.70
2022-10-20T19:20:57.713Z,11.75
2022-10-20T19:26:04.982Z,9.52
2022-10-20T19:43:20.474Z,13.68
2022-10-20T19:48:23.231Z,15.57
2022-10-20T19:53:26.019Z,14.00
2022-10-20T19:58:29.998Z,15.18
2022-10-20T20:03:32.788Z,12.32
2022-10-20T20:08:35.976Z,9.70
2022-10-20T20:13:40.062Z,9.25
2022-10-20T20:18:42.663Z,10.35
2022-10-20T20:23:59.022Z,12.35
2022-10-20T20:29:04.859Z,10.38
2022-10-20T20:34:07.576Z,11.93
2022-10-20T20:39:13.046Z,9.55
2022-10-20T20:49:31.158Z,11.48
2022-10-20T20:54:33.767Z,9.82
2022-10-20T20:59:37.733Z,9.65
2022-10-20T21:04:40.333Z,11.13
2022-10-20T21:09:42.917Z,10.23
2022-10-20T21:14:48.162Z,10.15
2022-10-20T21:19:50.759Z,8.93
2022-10-20T21:24:53.366Z,9.63
2022-10-20T21:29:57.394Z,9.55
2022-10-20T21:35:00.155Z,9.65
2022-10-20T21:40:02.768Z,10.45
2022-10-20T21:45:07.531Z,10.45
2022-10-20T21:50:10.119Z,9.15
2022-10-20T21:55:12.728Z,9.90
2022-10-20T22:00:20.582Z,11.35
2022-10-20T22:05:25.856Z,9.57
2022-10-20T22:10:28.500Z,7.93
2022-10-20T22:15:32.902Z,9.95
2022-10-20T22:20:37.121Z,9.40
2022-10-20T22:25:40.241Z,10.63
2022-10-20T22:30:44.264Z,9.10
2022-10-20T22:35:46.956Z,8.65
2022-10-20T22:40:49.560Z,9.52
2022-10-20T22:45:53.498Z,9.77
2022-10-20T22:50:56.139Z,8.23
2022-10-20T22:56:05.562Z,7.63
2022-10-20T23:01:11.965Z,8.43
2022-10-20T23:06:16.671Z,9.30
2022-10-20T23:11:20.118Z,9.70
2022-10-20T23:21:32.447Z,11.65
2022-10-20T23:26:35.088Z,7.18
2022-10-20T23:31:39.096Z,10.25
2022-10-20T23:36:41.720Z,9.57
2022-10-20T23:41:44.718Z,9.40
2022-10-20T23:46:48.757Z,10.10
2022-10-20T23:51:51.351Z,8.52
2022-10-20T23:56:53.925Z,8.27
